ADDS METAR Data INFO
IDs: Format: Raw Decoded Include TAF

Data at: 1044 UTC 19 Oct 2017

KDAB 190953Z 05010KT 10SM FEW020 SCT042 BKN055 24/24 A3008 RMK AO2 SLP184 T02440239
KDAB 190853Z 06007KT 10SM FEW028 BKN055 24/23 A3007 RMK AO2 SLP181 T02440228 56011
KDAB 190753Z 06011KT 10SM FEW028 BKN050 24/22 A3007 RMK AO2 SLP182 T02440222
KDAB 190653Z 06011KT 10SM SCT028 BKN055 24/24 A3009 RMK AO2 SLP187 T02440239
KDAB 190553Z 04008KT 10SM SCT033 24/21 A3010 RMK AO2 SLP192 T02440211 10256 20244 58010
KDAB 190453Z 04009KT 10SM FEW032 24/21 A3011 RMK AO2 SLP196 T02440206 402780217
KDAB 190353Z 05009KT 10SM FEW033 24/21 A3013 RMK AO2 SLP202 T02440211
KDAB 190253Z 05011KT 10SM FEW033 FEW060 24/21 A3013 RMK AO2 SLP202 T02440211 51006
KDAB 190153Z 06012KT 10SM FEW033 FEW060 FEW150 24/22 A3013 RMK AO2 SLP202 T02440217
KDAB 190053Z 03009KT 10SM FEW026 FEW060 SCT150 25/21 A3013 RMK AO2 SLP201 T02500206
KDAB 182353Z 03009KT 10SM FEW026 FEW060 SCT150 25/21 A3011 RMK AO2 SLP196 T02500206 10278 20250 53003
KDAB 182253Z 05012KT 10SM FEW026 FEW060 BKN150 26/21 A3010 RMK AO2 SLP193 T02560206
KDAB 182153Z 04011KT 10SM FEW026 SCT035TCU SCT060 BKN150 26/21 A3010 RMK AO2 SLP193 TCU OHD-N T02610206
KDAB 182053Z 03013G21KT 10SM FEW028 SCT036 BKN060 BKN150 26/23 A3010 RMK AO2 SLP193 T02610228 56009
KDAB 181953Z 05015G20KT 10SM FEW040 SCT150 BKN250 27/21 A3011 RMK AO2 SLP194 T02720206
KDAB 181853Z 05016G21KT 10SM FEW043 SCT150 BKN250 28/19 A3011 RMK AO2 SLP196 T02780194
KDAB 181753Z 06016G23KT 10SM SCT042 SCT050 SCT150 27/20 A3013 RMK AO2 SLP202 60002 T02670200 10278 20233 58005
KDAB 181653Z 05018KT 10SM SCT040 SCT065 SCT150 27/21 A3014 RMK AO2 PK WND 06029/1629 SLP207 T02720206
KDAB 181553Z 06019G24KT 10SM SCT035 SCT046 BKN060 BKN150 26/21 A3015 RMK AO2 SLP210 T02610211
KDAB 181453Z 05012KT 9SM SCT033 BKN060 26/23 A3015 RMK AO2 SLP207 60002 T02560228 51017
KDAB 181353Z 07012KT 8SM SCT030 SCT041 OVC060 24/23 A3014 RMK AO2 PK WND 04029/1300 RAB02E23 SLP204 P0002 T02440233
KDAB 181328Z 06015G21KT 9SM FEW028 OVC050 24/23 A3012 RMK AO2 PK WND 04029/1300 RAB02E23 P0002 T02440233
KDAB 181302Z 05021G29KT 6SM RA BR SCT021 BKN029 OVC043 24/23 A3012 RMK AO2 PK WND 04029/1300 RAB02 P0000 T02440233
KDAB 181253Z 08011KT 8SM SCT028 BKN032 OVC043 25/24 A3011 RMK AO2 RAE05B14E25 SLP195 P0000 T02500239
KDAB 181206Z 06010KT 10SM FEW027 BKN037 OVC055 24/23 A3010 RMK AO2 RAE05 P0000 T02390233
KDAB 181153Z 07011KT 6SM -RA BR FEW011 BKN024 BKN037 23/23 A3010 RMK AO2 SLP190 P0072 60076 70156 T02330233 10233 20217 51011
KDAB 181145Z 07010KT 6SM -RA BR FEW011 BKN024 BKN037 23/23 A3009 RMK AO2 P0072 T02330233 $
KDAB 181114Z 10007KT 1SM +RA BR FEW011 BKN018 BKN030 23/23 A3009 RMK AO2 SFC VIS 2 P0014 T02280228 $
KDAB 181053Z 01004KT 10SM +RA SCT019 SCT039 BKN110 23/23 A3009 RMK AO2 RAE0958B21 SLP190 P0002 T02280228 $
KDAB 180953Z 31005KT 7SM -RA FEW021 SCT034 BKN080 22/22 A3008 RMK AO2 RAB45 SLP185 P0000 T02220222 $
KDAB 180945Z 30004KT 7SM RA FEW021 SCT029 BKN039 22/22 A3008 RMK AO2 RAB45 P0000 T02220222 $
KDAB 180853Z COR 00000KT 10SM FEW017 SCT046 BKN070 22/22 A3006 RMK AO2 RAB15E26 SLP179 P0000 60002 T02220222 56010 $
KDAB 180753Z 10003KT 10SM FEW024 BKN055 BKN130 23/23 A3007 RMK AO2 RAE12 SLP180 P0000 T02280228 $
KDAB 180653Z 07010G19KT 10SM -RA SCT017 SCT041 BKN070 BKN130 23/23 A3008 RMK AO2 SLP183 P0002 T02330233 $
KDAB 180553Z 07015KT 6SM -RA BR FEW009 SCT020 OVC050 23/23 A3009 RMK AO2 RAB0459E09B25 SLP189 P0002 60067 T02280228 10239 20222 56002 $
KDAB 180453Z 04012KT 8SM SCT013 SCT041 BKN070 23/23 A3009 RMK AO2 RAE53 SLP189 P0011 T02280228 402670217 $
KDAB 180430Z 05015G23KT 5SM -RA BR SCT013 SCT038 BKN049 23/23 A3009 RMK AO2 P0011 T02280228 $
KDAB 180353Z 03015KT 2SM +RA BR SCT007 BKN015 OVC032 23/23 A3009 RMK AO2 SLP190 P0054 T02280228 $
KDAB 180347Z 03010KT 2SM +RA BR SCT007 BKN015 OVC032 23/23 A3010 RMK AO2 P0051 $
KDAB 180318Z 04014KT 3SM RA BR SCT009 BKN019 OVC026 22/22 A3011 RMK AO2 P0040 T02220222 $
KDAB 180253Z 04020G27KT 2SM +RA BR BKN019 BKN026 OVC035 23/23 A3011 RMK AO2 PK WND 04027/0253 RAB17 SLP195 60000 T02280228 52012 PNO $
KDAB 180242Z 07012KT 3SM +RA BR BKN019 BKN026 OVC035 23/23 A3011 RMK AO2 PK WND 01026/0201 RAB17 P0000 T02330233
KDAB 180239Z 05013G24KT 1SM +RA BR BKN019 BKN026 OVC035 23/23 A3011 RMK AO2 PK WND 01026/0201 RAB17 P0000 T02330233 RVRNO
KDAB 180235Z 04017G24KT 2SM +RA BR BKN019 BKN026 OVC035 23/23 A3011 RMK AO2 PK WND 01026/0201 RAB17 P0000 T02330233
KDAB 180153Z 01017G26KT 9SM BKN024 OVC035 24/22 A3010 RMK AO2 PK WND 02029/0127 SLP191 T02390222
KDAB 180053Z 01018G23KT 9SM BKN024 BKN030 OVC035 24/22 A3009 RMK AO2 PK WND 02028/0013 SLP187 T02390222
KDAB 172353Z 01020G26KT 9SM BKN022 BKN031 OVC043 24/22 A3007 RMK AO2 PK WND 01028/2310 SLP183 60010 T02390222 10256 20233 53005
KDAB 172253Z 02016G24KT 9SM SCT021 BKN028 OVC075 24/22 A3007 RMK AO2 PK WND 03027/2210 SLP181 T02390222